sensor_id;sensor_type;location;lat;lon;timestamp;P1;durP1;ratioP1;P2;durP2;ratioP2
9234;SDS011;4652;42.716;23.218;2023-04-29T00:03:34;5.73;;;5.07;;
9234;SDS011;4652;42.716;23.218;2023-04-29T00:10:18;6.53;;;5.40;;
9234;SDS011;4652;42.716;23.218;2023-04-29T00:17:00;5.37;;;4.67;;
9234;SDS011;4652;42.716;23.218;2023-04-29T00:23:42;7.13;;;5.63;;
9234;SDS011;4652;42.716;23.218;2023-04-29T00:30:26;6.50;;;5.30;;
9234;SDS011;4652;42.716;23.218;2023-04-29T00:37:09;9.93;;;6.03;;
9234;SDS011;4652;42.716;23.218;2023-04-29T00:43:51;7.20;;;5.30;;
9234;SDS011;4652;42.716;23.218;2023-04-29T00:50:34;6.80;;;5.53;;
9234;SDS011;4652;42.716;23.218;2023-04-29T00:57:17;7.53;;;6.00;;
9234;SDS011;4652;42.716;23.218;2023-04-29T01:08:11;7.20;;;5.60;;
9234;SDS011;4652;42.716;23.218;2023-04-29T01:15:04;7.67;;;6.00;;
9234;SDS011;4652;42.716;23.218;2023-04-29T01:21:50;7.80;;;6.80;;
9234;SDS011;4652;42.716;23.218;2023-04-29T01:28:37;8.03;;;6.57;;
9234;SDS011;4652;42.716;23.218;2023-04-29T01:35:32;7.60;;;6.10;;
9234;SDS011;4652;42.716;23.218;2023-04-29T01:42:27;8.00;;;6.33;;
9234;SDS011;4652;42.716;23.218;2023-04-29T01:49:16;11.47;;;6.53;;
9234;SDS011;4652;42.716;23.218;2023-04-29T01:56:00;8.33;;;6.90;;
9234;SDS011;4652;42.716;23.218;2023-04-29T02:02:42;8.43;;;5.90;;
9234;SDS011;4652;42.716;23.218;2023-04-29T02:09:26;11.57;;;6.37;;
9234;SDS011;4652;42.716;23.218;2023-04-29T02:16:08;9.60;;;6.20;;
9234;SDS011;4652;42.716;23.218;2023-04-29T02:22:51;7.20;;;6.50;;
9234;SDS011;4652;42.716;23.218;2023-04-29T02:29:34;8.87;;;6.27;;
9234;SDS011;4652;42.716;23.218;2023-04-29T02:36:17;8.87;;;6.23;;
9234;SDS011;4652;42.716;23.218;2023-04-29T02:42:59;8.33;;;6.50;;
9234;SDS011;4652;42.716;23.218;2023-04-29T02:49:43;7.70;;;6.47;;
9234;SDS011;4652;42.716;23.218;2023-04-29T02:56:25;6.53;;;5.73;;
9234;SDS011;4652;42.716;23.218;2023-04-29T03:03:06;10.50;;;5.97;;
9234;SDS011;4652;42.716;23.218;2023-04-29T03:09:50;6.37;;;5.77;;
9234;SDS011;4652;42.716;23.218;2023-04-29T03:16:32;8.70;;;5.73;;
9234;SDS011;4652;42.716;23.218;2023-04-29T03:23:14;8.33;;;6.33;;
9234;SDS011;4652;42.716;23.218;2023-04-29T03:29:57;6.73;;;6.03;;
9234;SDS011;4652;42.716;23.218;2023-04-29T03:36:39;9.43;;;6.10;;
9234;SDS011;4652;42.716;23.218;2023-04-29T03:43:21;9.23;;;6.80;;
9234;SDS011;4652;42.716;23.218;2023-04-29T03:50:05;7.03;;;5.90;;
9234;SDS011;4652;42.716;23.218;2023-04-29T03:56:48;10.03;;;6.23;;
9234;SDS011;4652;42.716;23.218;2023-04-29T04:03:30;7.70;;;6.43;;
9234;SDS011;4652;42.716;23.218;2023-04-29T04:10:14;9.67;;;7.07;;
9234;SDS011;4652;42.716;23.218;2023-04-29T04:16:56;8.63;;;7.53;;
9234;SDS011;4652;42.716;23.218;2023-04-29T04:23:38;14.53;;;9.73;;
9234;SDS011;4652;42.716;23.218;2023-04-29T04:30:22;10.83;;;8.20;;
9234;SDS011;4652;42.716;23.218;2023-04-29T04:37:04;11.90;;;8.20;;
9234;SDS011;4652;42.716;23.218;2023-04-29T04:43:46;9.10;;;8.10;;
9234;SDS011;4652;42.716;23.218;2023-04-29T04:50:30;11.57;;;8.17;;
9234;SDS011;4652;42.716;23.218;2023-04-29T04:57:12;10.57;;;8.20;;
9234;SDS011;4652;42.716;23.218;2023-04-29T05:03:54;17.70;;;10.80;;
9234;SDS011;4652;42.716;23.218;2023-04-29T05:10:37;30.60;;;21.90;;
9234;SDS011;4652;42.716;23.218;2023-04-29T05:17:19;20.20;;;18.00;;
9234;SDS011;4652;42.716;23.218;2023-04-29T05:24:01;13.73;;;12.13;;
9234;SDS011;4652;42.716;23.218;2023-04-29T05:30:45;12.00;;;9.90;;
9234;SDS011;4652;42.716;23.218;2023-04-29T05:37:27;11.03;;;8.23;;
9234;SDS011;4652;42.716;23.218;2023-04-29T05:44:11;9.10;;;7.70;;
9234;SDS011;4652;42.716;23.218;2023-04-29T05:50:54;12.17;;;10.57;;
9234;SDS011;4652;42.716;23.218;2023-04-29T05:57:36;12.43;;;7.60;;
9234;SDS011;4652;42.716;23.218;2023-04-29T06:04:18;10.90;;;8.53;;
9234;SDS011;4652;42.716;23.218;2023-04-29T06:11:01;8.53;;;7.67;;
9234;SDS011;4652;42.716;23.218;2023-04-29T06:17:45;7.83;;;6.97;;
9234;SDS011;4652;42.716;23.218;2023-04-29T06:24:27;12.57;;;11.37;;
9234;SDS011;4652;42.716;23.218;2023-04-29T06:31:11;8.70;;;7.20;;
9234;SDS011;4652;42.716;23.218;2023-04-29T06:37:53;8.50;;;7.60;;
9234;SDS011;4652;42.716;23.218;2023-04-29T06:44:35;9.20;;;7.63;;
9234;SDS011;4652;42.716;23.218;2023-04-29T06:51:19;12.03;;;10.40;;
9234;SDS011;4652;42.716;23.218;2023-04-29T06:58:02;15.90;;;11.70;;
9234;SDS011;4652;42.716;23.218;2023-04-29T07:08:05;12.05;;;10.00;;
9234;SDS011;4652;42.716;23.218;2023-04-29T07:14:48;10.43;;;9.27;;
9234;SDS011;4652;42.716;23.218;2023-04-29T07:21:30;9.90;;;8.38;;
9234;SDS011;4652;42.716;23.218;2023-04-29T07:28:13;9.20;;;8.40;;
9234;SDS011;4652;42.716;23.218;2023-04-29T07:34:55;10.50;;;9.27;;
9234;SDS011;4652;42.716;23.218;2023-04-29T07:41:37;9.40;;;8.37;;
9234;SDS011;4652;42.716;23.218;2023-04-29T07:48:20;10.40;;;7.53;;
9234;SDS011;4652;42.716;23.218;2023-04-29T07:55:02;9.67;;;7.73;;
9234;SDS011;4652;42.716;23.218;2023-04-29T08:01:45;11.17;;;8.17;;
9234;SDS011;4652;42.716;23.218;2023-04-29T08:08:28;10.03;;;8.77;;
9234;SDS011;4652;42.716;23.218;2023-04-29T08:15:10;13.47;;;10.73;;
9234;SDS011;4652;42.716;23.218;2023-04-29T08:21:52;10.33;;;8.60;;
9234;SDS011;4652;42.716;23.218;2023-04-29T08:28:35;9.00;;;7.73;;
9234;SDS011;4652;42.716;23.218;2023-04-29T08:35:17;11.50;;;8.47;;
9234;SDS011;4652;42.716;23.218;2023-04-29T08:42:00;11.13;;;8.77;;
9234;SDS011;4652;42.716;23.218;2023-04-29T08:48:50;13.00;;;8.20;;
9234;SDS011;4652;42.716;23.218;2023-04-29T08:55:33;11.47;;;9.10;;
9234;SDS011;4652;42.716;23.218;2023-04-29T09:02:17;11.27;;;8.47;;
9234;SDS011;4652;42.716;23.218;2023-04-29T09:09:02;12.77;;;8.33;;
9234;SDS011;4652;42.716;23.218;2023-04-29T09:15:45;8.50;;;7.20;;
9234;SDS011;4652;42.716;23.218;2023-04-29T09:22:46;9.57;;;7.10;;
9234;SDS011;4652;42.716;23.218;2023-04-29T09:29:30;8.03;;;7.23;;
9234;SDS011;4652;42.716;23.218;2023-04-29T09:36:13;8.60;;;6.73;;
9234;SDS011;4652;42.716;23.218;2023-04-29T09:43:15;6.97;;;5.43;;
9234;SDS011;4652;42.716;23.218;2023-04-29T09:50:10;6.17;;;5.67;;
9234;SDS011;4652;42.716;23.218;2023-04-29T09:56:55;7.53;;;4.70;;
9234;SDS011;4652;42.716;23.218;2023-04-29T10:03:38;5.80;;;4.43;;
9234;SDS011;4652;42.716;23.218;2023-04-29T10:10:24;6.37;;;4.43;;
9234;SDS011;4652;42.716;23.218;2023-04-29T10:17:09;6.63;;;4.20;;
9234;SDS011;4652;42.716;23.218;2023-04-29T10:23:57;6.03;;;4.07;;
9234;SDS011;4652;42.716;23.218;2023-04-29T10:30:41;3.60;;;3.00;;
9234;SDS011;4652;42.716;23.218;2023-04-29T10:37:25;3.80;;;3.13;;
9234;SDS011;4652;42.716;23.218;2023-04-29T10:44:07;4.10;;;2.50;;
9234;SDS011;4652;42.716;23.218;2023-04-29T10:51:03;2.60;;;2.33;;
9234;SDS011;4652;42.716;23.218;2023-04-29T10:57:45;2.70;;;2.00;;
9234;SDS011;4652;42.716;23.218;2023-04-29T11:04:27;7.40;;;5.10;;
9234;SDS011;4652;42.716;23.218;2023-04-29T11:11:13;12.00;;;6.00;;
9234;SDS011;4652;42.716;23.218;2023-04-29T11:17:57;5.47;;;3.70;;
9234;SDS011;4652;42.716;23.218;2023-04-29T11:24:50;4.67;;;2.57;;
9234;SDS011;4652;42.716;23.218;2023-04-29T11:31:35;3.23;;;2.07;;
9234;SDS011;4652;42.716;23.218;2023-04-29T11:38:22;2.50;;;2.27;;
9234;SDS011;4652;42.716;23.218;2023-04-29T11:45:05;2.50;;;1.70;;
9234;SDS011;4652;42.716;23.218;2023-04-29T11:51:49;2.40;;;2.07;;
9234;SDS011;4652;42.716;23.218;2023-04-29T11:58:32;5.37;;;3.73;;
9234;SDS011;4652;42.716;23.218;2023-04-29T12:05:14;2.60;;;1.90;;
9234;SDS011;4652;42.716;23.218;2023-04-29T12:11:59;4.20;;;1.90;;
9234;SDS011;4652;42.716;23.218;2023-04-29T12:18:41;3.10;;;2.23;;
9234;SDS011;4652;42.716;23.218;2023-04-29T12:25:24;2.57;;;2.00;;
9234;SDS011;4652;42.716;23.218;2023-04-29T12:32:12;2.80;;;2.23;;
9234;SDS011;4652;42.716;23.218;2023-04-29T12:38:57;2.00;;;1.80;;
9234;SDS011;4652;42.716;23.218;2023-04-29T12:45:40;4.40;;;2.10;;
9234;SDS011;4652;42.716;23.218;2023-04-29T12:52:23;11.40;;;10.33;;
9234;SDS011;4652;42.716;23.218;2023-04-29T12:59:05;2.13;;;1.70;;
9234;SDS011;4652;42.716;23.218;2023-04-29T13:08:08;3.90;;;1.93;;
9234;SDS011;4652;42.716;23.218;2023-04-29T13:14:50;2.07;;;1.60;;
9234;SDS011;4652;42.716;23.218;2023-04-29T13:21:34;2.37;;;1.67;;
9234;SDS011;4652;42.716;23.218;2023-04-29T13:28:18;2.13;;;1.93;;
9234;SDS011;4652;42.716;23.218;2023-04-29T13:35:01;26.00;;;8.52;;
9234;SDS011;4652;42.716;23.218;2023-04-29T13:41:44;2.80;;;1.80;;
9234;SDS011;4652;42.716;23.218;2023-04-29T13:48:28;2.83;;;1.60;;
9234;SDS011;4652;42.716;23.218;2023-04-29T13:55:09;1.73;;;1.53;;
9234;SDS011;4652;42.716;23.218;2023-04-29T14:01:51;1.83;;;1.40;;
9234;SDS011;4652;42.716;23.218;2023-04-29T14:08:35;1.60;;;1.50;;
9234;SDS011;4652;42.716;23.218;2023-04-29T14:15:16;3.73;;;1.90;;
9234;SDS011;4652;42.716;23.218;2023-04-29T14:21:58;2.97;;;2.53;;
9234;SDS011;4652;42.716;23.218;2023-04-29T14:28:42;3.10;;;2.70;;
9234;SDS011;4652;42.716;23.218;2023-04-29T14:35:24;3.50;;;2.17;;
9234;SDS011;4652;42.716;23.218;2023-04-29T14:42:06;4.70;;;2.90;;
9234;SDS011;4652;42.716;23.218;2023-04-29T14:48:51;6.27;;;2.80;;
9234;SDS011;4652;42.716;23.218;2023-04-29T14:55:33;4.67;;;2.53;;
9234;SDS011;4652;42.716;23.218;2023-04-29T15:02:15;3.13;;;2.50;;
9234;SDS011;4652;42.716;23.218;2023-04-29T15:08:58;2.77;;;2.50;;
9234;SDS011;4652;42.716;23.218;2023-04-29T15:15:40;4.27;;;2.40;;
9234;SDS011;4652;42.716;23.218;2023-04-29T15:22:23;3.83;;;2.63;;
9234;SDS011;4652;42.716;23.218;2023-04-29T15:29:06;5.83;;;2.80;;
9234;SDS011;4652;42.716;23.218;2023-04-29T15:35:48;4.73;;;2.77;;
9234;SDS011;4652;42.716;23.218;2023-04-29T15:42:30;5.17;;;3.07;;
9234;SDS011;4652;42.716;23.218;2023-04-29T15:49:13;4.70;;;2.83;;
9234;SDS011;4652;42.716;23.218;2023-04-29T15:55:55;5.73;;;2.97;;
9234;SDS011;4652;42.716;23.218;2023-04-29T16:02:37;6.97;;;3.20;;
9234;SDS011;4652;42.716;23.218;2023-04-29T16:09:21;11.10;;;3.30;;
9234;SDS011;4652;42.716;23.218;2023-04-29T16:16:03;4.23;;;3.20;;
9234;SDS011;4652;42.716;23.218;2023-04-29T16:22:45;5.90;;;3.10;;
9234;SDS011;4652;42.716;23.218;2023-04-29T16:29:29;4.27;;;3.43;;
9234;SDS011;4652;42.716;23.218;2023-04-29T16:36:11;8.90;;;3.70;;
9234;SDS011;4652;42.716;23.218;2023-04-29T16:42:53;5.83;;;4.10;;
9234;SDS011;4652;42.716;23.218;2023-04-29T16:49:37;6.50;;;4.80;;
9234;SDS011;4652;42.716;23.218;2023-04-29T16:56:20;4.17;;;3.77;;
9234;SDS011;4652;42.716;23.218;2023-04-29T17:03:02;3.80;;;3.10;;
9234;SDS011;4652;42.716;23.218;2023-04-29T17:09:47;9.10;;;7.40;;
9234;SDS011;4652;42.716;23.218;2023-04-29T17:16:29;14.53;;;9.30;;
9234;SDS011;4652;42.716;23.218;2023-04-29T17:23:11;11.10;;;7.60;;
9234;SDS011;4652;42.716;23.218;2023-04-29T17:29:54;5.93;;;4.77;;
9234;SDS011;4652;42.716;23.218;2023-04-29T17:36:36;5.83;;;4.43;;
9234;SDS011;4652;42.716;23.218;2023-04-29T17:43:18;10.07;;;5.80;;
9234;SDS011;4652;42.716;23.218;2023-04-29T17:50:02;6.70;;;5.60;;
9234;SDS011;4652;42.716;23.218;2023-04-29T17:56:44;7.43;;;6.43;;
9234;SDS011;4652;42.716;23.218;2023-04-29T18:03:26;6.87;;;6.13;;
9234;SDS011;4652;42.716;23.218;2023-04-29T18:10:11;5.83;;;5.23;;
9234;SDS011;4652;42.716;23.218;2023-04-29T18:16:53;7.80;;;4.90;;
9234;SDS011;4652;42.716;23.218;2023-04-29T18:23:35;6.73;;;5.00;;
9234;SDS011;4652;42.716;23.218;2023-04-29T18:30:19;6.77;;;4.80;;
9234;SDS011;4652;42.716;23.218;2023-04-29T18:37:01;5.87;;;5.23;;
9234;SDS011;4652;42.716;23.218;2023-04-29T18:43:43;15.40;;;5.67;;
9234;SDS011;4652;42.716;23.218;2023-04-29T18:50:26;7.27;;;5.43;;
9234;SDS011;4652;42.716;23.218;2023-04-29T18:57:08;8.27;;;7.47;;
9234;SDS011;4652;42.716;23.218;2023-04-29T19:51:56;13.57;;;9.20;;
9234;SDS011;4652;42.716;23.218;2023-04-29T19:58:38;11.70;;;10.10;;
9234;SDS011;4652;42.716;23.218;2023-04-29T20:05:20;19.63;;;13.70;;
9234;SDS011;4652;42.716;23.218;2023-04-29T20:12:03;16.73;;;12.93;;
9234;SDS011;4652;42.716;23.218;2023-04-29T20:18:46;17.30;;;14.80;;
9234;SDS011;4652;42.716;23.218;2023-04-29T20:25:27;20.33;;;15.17;;
9234;SDS011;4652;42.716;23.218;2023-04-29T20:32:12;17.57;;;15.03;;
9234;SDS011;4652;42.716;23.218;2023-04-29T20:38:54;19.47;;;14.67;;
9234;SDS011;4652;42.716;23.218;2023-04-29T20:45:36;23.53;;;13.37;;
9234;SDS011;4652;42.716;23.218;2023-04-29T20:52:19;14.20;;;10.73;;
9234;SDS011;4652;42.716;23.218;2023-04-29T20:59:03;12.63;;;10.63;;
9234;SDS011;4652;42.716;23.218;2023-04-29T21:05:45;12.17;;;9.13;;
9234;SDS011;4652;42.716;23.218;2023-04-29T21:12:28;11.90;;;9.13;;
9234;SDS011;4652;42.716;23.218;2023-04-29T21:19:09;12.47;;;9.13;;
9234;SDS011;4652;42.716;23.218;2023-04-29T21:25:51;10.33;;;7.50;;
9234;SDS011;4652;42.716;23.218;2023-04-29T21:32:34;8.60;;;7.30;;
9234;SDS011;4652;42.716;23.218;2023-04-29T21:39:17;8.40;;;6.83;;
9234;SDS011;4652;42.716;23.218;2023-04-29T21:45:58;9.23;;;7.63;;
9234;SDS011;4652;42.716;23.218;2023-04-29T21:52:42;11.27;;;7.53;;
9234;SDS011;4652;42.716;23.218;2023-04-29T21:59:24;13.57;;;8.93;;
9234;SDS011;4652;42.716;23.218;2023-04-29T22:06:06;10.97;;;6.63;;
9234;SDS011;4652;42.716;23.218;2023-04-29T22:12:49;8.33;;;7.03;;
9234;SDS011;4652;42.716;23.218;2023-04-29T22:19:31;8.13;;;7.33;;
9234;SDS011;4652;42.716;23.218;2023-04-29T22:26:13;9.37;;;7.00;;
9234;SDS011;4652;42.716;23.218;2023-04-29T22:32:57;12.33;;;8.10;;
9234;SDS011;4652;42.716;23.218;2023-04-29T22:39:39;9.07;;;7.57;;
9234;SDS011;4652;42.716;23.218;2023-04-29T22:46:21;9.63;;;7.90;;
9234;SDS011;4652;42.716;23.218;2023-04-29T22:53:04;8.90;;;7.70;;
9234;SDS011;4652;42.716;23.218;2023-04-29T22:59:46;10.47;;;7.73;;
9234;SDS011;4652;42.716;23.218;2023-04-29T23:06:28;8.37;;;6.97;;
9234;SDS011;4652;42.716;23.218;2023-04-29T23:13:12;9.77;;;7.97;;
9234;SDS011;4652;42.716;23.218;2023-04-29T23:19:54;11.43;;;8.10;;
9234;SDS011;4652;42.716;23.218;2023-04-29T23:26:36;9.07;;;7.77;;
9234;SDS011;4652;42.716;23.218;2023-04-29T23:33:20;10.70;;;8.43;;
9234;SDS011;4652;42.716;23.218;2023-04-29T23:40:02;11.73;;;7.83;;
9234;SDS011;4652;42.716;23.218;2023-04-29T23:46:46;9.10;;;6.90;;
9234;SDS011;4652;42.716;23.218;2023-04-29T23:53:30;9.07;;;6.50;;
